createdAt,value
2023-03-19T00:01:08.875Z,97093.41
2023-03-19T00:03:47.335Z,97087.25
2023-03-19T00:06:15.828Z,97095.09
2023-03-19T00:08:44.048Z,97102.03
2023-03-19T00:11:13.749Z,97092.41
2023-03-19T00:13:41.767Z,97099.22
2023-03-19T00:16:09.980Z,97107.13
2023-03-19T00:18:39.559Z,97102.19
2023-03-19T00:21:08.006Z,97108.25
2023-03-19T00:23:36.314Z,97106.56
2023-03-19T00:26:04.905Z,97117.97
2023-03-19T00:28:32.994Z,97108.69
2023-03-19T00:31:08.796Z,97110.53
2023-03-19T00:33:36.972Z,97109.25
2023-03-19T00:36:08.004Z,97104.88
2023-03-19T00:38:36.068Z,97104.19
2023-03-19T00:41:05.294Z,97114.47
2023-03-19T00:43:33.326Z,97110.53
2023-03-19T00:46:01.519Z,97120.41
2023-03-19T00:48:29.942Z,97107.28
2023-03-19T00:50:57.945Z,97115.31
2023-03-19T00:53:27.373Z,97119.28
2023-03-19T00:55:55.439Z,97118.28
2023-03-19T00:58:23.447Z,97120.25
2023-03-19T01:00:53.997Z,97119.81
2023-03-19T01:03:22.136Z,97115.31
2023-03-19T01:08:18.644Z,97118.97
2023-03-19T01:10:48.305Z,97113.47
2023-03-19T01:13:16.685Z,97116.28
2023-03-19T01:15:44.940Z,97114.06
2023-03-19T01:18:13.486Z,97115.16
2023-03-19T01:20:42.253Z,97115.44
2023-03-19T01:23:10.217Z,97117.31
2023-03-19T01:25:38.617Z,97105.19
2023-03-19T01:28:08.737Z,97099.38
2023-03-19T01:30:36.739Z,97105.19
2023-03-19T01:33:04.890Z,97105.44
2023-03-19T01:35:33.107Z,97108.13
2023-03-19T01:38:01.936Z,97109.81
2023-03-19T01:40:33.665Z,97112.75
2023-03-19T01:43:16.051Z,97112.59
2023-03-19T01:45:44.485Z,97118.97
2023-03-19T01:48:18.947Z,97117.50
2023-03-19T01:50:50.349Z,97112.03
2023-03-19T01:53:19.337Z,97107.97
2023-03-19T01:55:47.346Z,97111.31
2023-03-19T01:58:17.159Z,97110.66
2023-03-19T02:00:45.760Z,97115.28
2023-03-19T02:03:13.727Z,97111.06
2023-03-19T02:05:42.050Z,97109.63
2023-03-19T02:08:11.826Z,97111.63
2023-03-19T02:10:39.835Z,97118.97
2023-03-19T02:13:08.676Z,97120.63
2023-03-19T02:15:38.417Z,97123.75
2023-03-19T02:18:07.108Z,97123.59
2023-03-19T02:20:36.638Z,97117.56
2023-03-19T02:23:10.222Z,97116.44
2023-03-19T02:25:41.865Z,97114.31
2023-03-19T02:28:11.342Z,97102.06
2023-03-19T02:30:41.846Z,97105.44
2023-03-19T02:33:11.686Z,97111.34
2023-03-19T02:35:39.705Z,97103.16
2023-03-19T02:38:07.770Z,97107.84
2023-03-19T02:40:37.347Z,97109.09
2023-03-19T02:43:06.626Z,97108.25
2023-03-19T02:45:36.370Z,97111.56
2023-03-19T02:48:05.332Z,97110.22
2023-03-19T02:50:34.015Z,97102.03
2023-03-19T02:53:05.104Z,97107.91
2023-03-19T02:55:33.318Z,97107.38
2023-03-19T02:58:01.309Z,97111.06
2023-03-19T03:00:29.452Z,97113.00
2023-03-19T03:02:58.909Z,97117.09
2023-03-19T03:05:26.964Z,97113.00
2023-03-19T03:07:55.652Z,97111.88
2023-03-19T03:10:23.717Z,97115.09
2023-03-19T03:12:51.721Z,97113.91
2023-03-19T03:15:20.047Z,97108.81
2023-03-19T03:17:48.481Z,97110.09
2023-03-19T03:20:19.901Z,97107.13
2023-03-19T03:22:48.332Z,97104.31
2023-03-19T03:25:16.656Z,97107.84
2023-03-19T03:27:44.694Z,97106.88
2023-03-19T03:30:13.387Z,97107.28
2023-03-19T03:32:43.007Z,97105.31
2023-03-19T03:35:11.272Z,97113.91
2023-03-19T03:37:40.860Z,97112.22
2023-03-19T03:40:10.670Z,97096.56
2023-03-19T03:42:42.014Z,97101.78
2023-03-19T03:45:11.233Z,97100.22
2023-03-19T03:47:39.582Z,97105.31
2023-03-19T03:50:10.905Z,97094.75
2023-03-19T03:52:41.099Z,97103.22
2023-03-19T03:55:09.982Z,97107.13
2023-03-19T03:57:38.596Z,97105.19
2023-03-19T04:00:07.457Z,97101.50
2023-03-19T04:02:36.982Z,97107.84
2023-03-19T04:05:06.350Z,97113.22
2023-03-19T04:07:35.916Z,97118.69
2023-03-19T04:10:05.828Z,97126.03
2023-03-19T04:12:34.973Z,97128.28
2023-03-19T04:15:03.402Z,97121.09
2023-03-19T04:17:31.453Z,97118.41
2023-03-19T04:19:59.923Z,97106.03
2023-03-19T04:22:27.967Z,97114.06
2023-03-19T04:24:56.014Z,97114.31
2023-03-19T04:27:25.719Z,97115.88
2023-03-19T04:29:53.776Z,97121.25
2023-03-19T04:32:21.922Z,97118.84
2023-03-19T04:34:49.950Z,97127.16
2023-03-19T04:37:17.999Z,97122.50
2023-03-19T04:39:46.859Z,97117.00
2023-03-19T04:42:15.446Z,97117.56
2023-03-19T04:44:44.891Z,97121.50
2023-03-19T04:47:13.157Z,97120.25
2023-03-19T04:49:41.637Z,97127.44
2023-03-19T04:52:09.836Z,97128.13
2023-03-19T04:54:38.228Z,97135.19
2023-03-19T04:57:06.530Z,97140.25
2023-03-19T04:59:34.585Z,97145.88
2023-03-19T05:02:04.029Z,97147.03
2023-03-19T05:04:32.078Z,97142.50
2023-03-19T05:07:00.048Z,97150.56
2023-03-19T05:09:28.041Z,97146.03
2023-03-19T05:11:56.601Z,97144.63
2023-03-19T05:14:24.781Z,97149.25
2023-03-19T05:16:53.227Z,97152.38
2023-03-19T05:19:22.858Z,97155.59
2023-03-19T05:21:51.088Z,97149.97
2023-03-19T05:24:20.068Z,97159.00
2023-03-19T05:26:48.203Z,97151.09
2023-03-19T05:29:16.155Z,97151.78
2023-03-19T05:31:44.298Z,97148.00
2023-03-19T05:34:13.064Z,97157.28
2023-03-19T05:36:42.715Z,97155.75
2023-03-19T05:39:10.704Z,97156.75
2023-03-19T05:41:38.726Z,97159.69
2023-03-19T05:44:06.947Z,97165.47
2023-03-19T05:46:35.656Z,97166.16
2023-03-19T05:49:03.915Z,97159.00
2023-03-19T05:51:32.021Z,97163.22
2023-03-19T05:54:01.943Z,97168.84
2023-03-19T05:56:30.485Z,97169.97
2023-03-19T05:58:58.910Z,97178.16
2023-03-19T06:01:26.931Z,97182.19
2023-03-19T06:03:55.011Z,97182.22
2023-03-19T06:06:23.068Z,97184.03
2023-03-19T06:08:51.344Z,97186.03
2023-03-19T06:11:22.202Z,97188.69
2023-03-19T06:13:50.340Z,97179.56
2023-03-19T06:16:18.402Z,97171.66
2023-03-19T06:18:47.243Z,97181.00
2023-03-19T06:21:15.328Z,97184.06
2023-03-19T06:23:43.840Z,97189.44
2023-03-19T06:26:11.844Z,97193.78
2023-03-19T06:28:41.262Z,97194.66
2023-03-19T06:31:09.394Z,97192.84
2023-03-19T06:33:38.946Z,97197.75
2023-03-19T06:36:07.968Z,97202.28
2023-03-19T06:38:36.938Z,97206.94
2023-03-19T06:41:05.569Z,97210.03
2023-03-19T06:43:37.027Z,97204.97
2023-03-19T06:46:08.821Z,97205.97
2023-03-19T06:48:37.811Z,97208.06
2023-03-19T06:51:06.953Z,97210.03
2023-03-19T06:53:35.026Z,97211.16
2023-03-19T06:56:03.648Z,97212.31
2023-03-19T06:58:31.975Z,97214.13
2023-03-19T07:01:00.020Z,97217.06
2023-03-19T07:03:29.443Z,97216.66
2023-03-19T07:05:57.399Z,97214.28
2023-03-19T07:08:29.727Z,97216.38
2023-03-19T07:10:58.386Z,97222.31
2023-03-19T07:13:26.552Z,97230.34
2023-03-19T07:15:54.649Z,97225.81
2023-03-19T07:18:22.729Z,97224.84
2023-03-19T07:20:53.011Z,97229.06
2023-03-19T07:23:21.076Z,97229.50
2023-03-19T07:25:49.506Z,97228.34
2023-03-19T07:28:17.604Z,97228.78
2023-03-19T07:30:45.815Z,97229.03
2023-03-19T07:33:14.479Z,97237.06
2023-03-19T07:35:42.679Z,97236.50
2023-03-19T07:38:12.515Z,97235.50
2023-03-19T07:40:45.553Z,97234.53
2023-03-19T07:43:19.685Z,97232.00
2023-03-19T07:45:48.162Z,97238.78
2023-03-19T07:48:16.518Z,97246.41
2023-03-19T07:50:44.493Z,97247.81
2023-03-19T07:53:13.915Z,97242.72
2023-03-19T07:55:42.483Z,97253.19
2023-03-19T07:58:11.127Z,97251.63
2023-03-19T08:00:39.156Z,97259.69
2023-03-19T08:03:07.255Z,97257.41
2023-03-19T08:05:35.271Z,97255.44
2023-03-19T08:08:03.450Z,97267.28
2023-03-19T08:10:35.580Z,97255.19
2023-03-19T08:13:05.389Z,97269.41
2023-03-19T08:15:40.766Z,97267.44
2023-03-19T08:18:09.102Z,97263.03
2023-03-19T08:20:37.195Z,97276.59
2023-03-19T08:23:06.206Z,97273.50
2023-03-19T08:25:36.081Z,97279.94
2023-03-19T08:28:07.187Z,97276.19
2023-03-19T08:30:36.140Z,97286.75
2023-03-19T08:33:07.243Z,97285.47
2023-03-19T08:35:35.537Z,97282.81
2023-03-19T08:38:04.945Z,97289.00
2023-03-19T08:40:33.100Z,97283.09
2023-03-19T08:43:04.089Z,97282.09
2023-03-19T08:45:35.113Z,97294.94
2023-03-19T08:48:04.810Z,97291.69
2023-03-19T08:50:33.279Z,97293.66
2023-03-19T08:53:01.608Z,97290.44
2023-03-19T08:55:29.617Z,97296.91
2023-03-19T08:58:00.017Z,97295.78
2023-03-19T09:00:29.450Z,97292.41
2023-03-19T09:02:57.684Z,97289.72
2023-03-19T09:05:28.037Z,97292.25
2023-03-19T09:07:57.666Z,97294.94
2023-03-19T09:10:25.704Z,97296.63
2023-03-19T09:12:53.860Z,97305.09
2023-03-19T09:15:22.089Z,97303.53
2023-03-19T09:17:51.975Z,97294.06
2023-03-19T09:20:20.584Z,97297.41
2023-03-19T09:22:48.746Z,97294.44
2023-03-19T09:25:16.724Z,97302.94
2023-03-19T09:27:46.365Z,97303.94
2023-03-19T09:30:15.309Z,97308.00
2023-03-19T09:32:43.672Z,97309.94
2023-03-19T09:35:13.521Z,97301.97
2023-03-19T09:37:41.601Z,97295.94
2023-03-19T09:40:13.098Z,97304.25
2023-03-19T09:42:53.849Z,97295.03
2023-03-19T09:45:22.193Z,97302.25
2023-03-19T09:47:51.602Z,97299.38
2023-03-19T09:50:22.711Z,97300.97
2023-03-19T09:52:52.766Z,97291.09
2023-03-19T09:55:37.630Z,97292.06
2023-03-19T09:58:09.967Z,97297.41
2023-03-19T10:00:38.127Z,97296.28
2023-03-19T10:03:07.671Z,97300.09
2023-03-19T10:05:45.483Z,97306.28
2023-03-19T10:08:27.594Z,97304.22
2023-03-19T10:11:03.045Z,97311.50
2023-03-19T10:13:39.651Z,97309.44
2023-03-19T10:16:09.223Z,97310.81
2023-03-19T10:18:39.456Z,97304.75
2023-03-19T10:21:11.324Z,97307.91
2023-03-19T10:23:42.311Z,97307.34
2023-03-19T10:26:12.214Z,97304.75
2023-03-19T10:28:40.338Z,97309.25
2023-03-19T10:31:28.542Z,97314.91
2023-03-19T10:34:06.759Z,97304.84
2023-03-19T10:36:37.021Z,97313.31
2023-03-19T10:39:07.889Z,97315.69
2023-03-19T10:41:42.503Z,97313.34
2023-03-19T10:44:13.694Z,97318.28
2023-03-19T10:46:42.149Z,97316.81
2023-03-19T10:49:13.479Z,97321.50
2023-03-19T10:51:44.173Z,97322.38
2023-03-19T10:54:22.610Z,97333.25
2023-03-19T10:56:50.882Z,97327.22
2023-03-19T10:59:24.152Z,97321.66
2023-03-19T11:01:56.757Z,97328.28
2023-03-19T11:04:27.970Z,97327.28
2023-03-19T11:06:57.815Z,97325.59
2023-03-19T11:09:31.447Z,97344.16
2023-03-19T11:12:00.655Z,97328.88
2023-03-19T11:14:31.322Z,97331.88
2023-03-19T11:17:04.377Z,97328.88
2023-03-19T11:19:37.102Z,97326.25
2023-03-19T11:22:14.660Z,97327.34
2023-03-19T11:24:43.372Z,97329.41
2023-03-19T11:27:11.725Z,97321.25
2023-03-19T11:29:42.396Z,97330.13
2023-03-19T11:32:23.996Z,97324.03
2023-03-19T11:34:54.021Z,97317.72
2023-03-19T11:37:28.612Z,97312.09
2023-03-19T11:40:01.281Z,97317.97
2023-03-19T11:42:39.827Z,97314.72
2023-03-19T11:45:13.783Z,97322.00
2023-03-19T11:47:44.713Z,97318.78
2023-03-19T11:50:19.607Z,97320.28
2023-03-19T11:53:17.250Z,97315.75
2023-03-19T11:55:51.422Z,97314.69
2023-03-19T11:58:45.135Z,97309.28
2023-03-19T12:01:17.854Z,97321.28
2023-03-19T12:03:59.609Z,97312.56
2023-03-19T12:06:34.928Z,97310.94
2023-03-19T12:09:05.130Z,97313.66
2023-03-19T12:11:38.124Z,97317.88
2023-03-19T12:14:17.193Z,97315.28
2023-03-19T12:16:55.961Z,97315.34
2023-03-19T12:19:49.877Z,97312.63
2023-03-19T12:22:23.030Z,97309.78
2023-03-19T12:25:18.118Z,97310.28
2023-03-19T12:27:48.877Z,97308.78
2023-03-19T12:30:20.439Z,97311.63
2023-03-19T12:32:58.211Z,97308.34
2023-03-19T12:35:29.637Z,97310.09
2023-03-19T12:37:59.684Z,97300.66
2023-03-19T12:40:31.486Z,97302.25
2023-03-19T12:43:01.000Z,97296.81
2023-03-19T12:45:31.946Z,97301.78
2023-03-19T12:48:02.094Z,97289.50
2023-03-19T12:50:30.470Z,97288.50
2023-03-19T12:52:58.943Z,97293.66
2023-03-19T12:55:36.481Z,97285.50
2023-03-19T12:58:05.777Z,97291.19
2023-03-19T13:00:35.783Z,97288.09
2023-03-19T13:03:06.588Z,97284.94
2023-03-19T13:05:38.309Z,97282.41
2023-03-19T13:08:08.394Z,97284.56
2023-03-19T13:10:37.810Z,97287.78
2023-03-19T13:13:23.962Z,97278.72
2023-03-19T13:15:53.887Z,97279.88
2023-03-19T13:18:26.248Z,97274.31
2023-03-19T13:21:01.504Z,97273.00
2023-03-19T13:23:32.456Z,97263.69
2023-03-19T13:26:04.406Z,97262.53
2023-03-19T13:28:33.636Z,97252.59
2023-03-19T13:31:03.602Z,97261.53
2023-03-19T13:33:33.537Z,97264.72
2023-03-19T13:36:05.343Z,97260.03
2023-03-19T13:38:38.912Z,97257.81
2023-03-19T13:41:44.432Z,97268.75
2023-03-19T13:44:29.824Z,97263.69
2023-03-19T13:46:57.941Z,97267.22
2023-03-19T13:49:35.750Z,97264.06
2023-03-19T13:52:23.157Z,97254.78
2023-03-19T13:54:53.654Z,97262.00
2023-03-19T13:57:36.146Z,97258.81
2023-03-19T14:00:53.905Z,97253.72
2023-03-19T14:03:22.409Z,97271.25
2023-03-19T14:05:51.406Z,97287.59
2023-03-19T14:08:21.793Z,97289.41
2023-03-19T14:10:50.670Z,97296.72
2023-03-19T14:13:24.112Z,97307.75
2023-03-19T14:15:55.520Z,97306.03
2023-03-19T14:18:25.873Z,97317.28
2023-03-19T14:20:59.636Z,97319.09
2023-03-19T14:23:39.468Z,97326.81
2023-03-19T14:26:14.035Z,97332.31
2023-03-19T14:28:49.603Z,97324.59
2023-03-19T14:31:35.886Z,97314.44
2023-03-19T14:34:09.190Z,97328.44
2023-03-19T14:36:38.292Z,97323.81
2023-03-19T14:39:10.675Z,97325.31
2023-03-19T14:41:44.871Z,97332.56
2023-03-19T14:44:45.720Z,97338.03
2023-03-19T14:47:43.842Z,97342.00
2023-03-19T14:50:28.045Z,97351.50
2023-03-19T14:52:59.583Z,97342.16
2023-03-19T14:55:37.468Z,97336.41
2023-03-19T14:58:05.673Z,97335.25
2023-03-19T15:00:42.814Z,97343.16
2023-03-19T15:03:20.299Z,97334.72
2023-03-19T15:05:50.368Z,97352.78
2023-03-19T15:08:22.173Z,97356.09
2023-03-19T15:10:57.344Z,97341.47
2023-03-19T15:13:36.391Z,97331.41
2023-03-19T15:16:16.887Z,97344.06
2023-03-19T15:18:45.003Z,97347.78
2023-03-19T15:21:13.924Z,97341.41
2023-03-19T15:23:44.070Z,97343.41
2023-03-19T15:26:12.582Z,97345.56
2023-03-19T15:28:49.445Z,97344.84
2023-03-19T15:31:32.071Z,97354.63
2023-03-19T15:34:19.434Z,97343.56
2023-03-19T15:36:48.046Z,97350.22
2023-03-19T15:39:16.765Z,97355.44
2023-03-19T15:41:48.389Z,97346.28
2023-03-19T15:44:18.214Z,97356.31
2023-03-19T15:46:47.970Z,97357.88
2023-03-19T15:49:17.692Z,97353.84
2023-03-19T15:51:45.718Z,97363.31
2023-03-19T15:54:13.755Z,97370.88
2023-03-19T15:56:41.737Z,97369.59
2023-03-19T15:59:13.536Z,97371.16
2023-03-19T16:01:41.753Z,97372.69
2023-03-19T16:04:16.398Z,97379.97
2023-03-19T16:06:44.454Z,97380.22
2023-03-19T16:09:22.721Z,97386.13
2023-03-19T16:11:51.819Z,97387.72
2023-03-19T16:14:25.077Z,97401.19
2023-03-19T16:16:53.545Z,97398.13
2023-03-19T16:19:35.122Z,97407.47
2023-03-19T16:22:04.225Z,97412.56
2023-03-19T16:24:34.265Z,97416.47
2023-03-19T16:27:06.060Z,97416.66
2023-03-19T16:29:37.076Z,97421.91
2023-03-19T16:32:07.045Z,97425.91
2023-03-19T16:34:42.300Z,97429.59
2023-03-19T16:37:29.118Z,97433.41
2023-03-19T16:39:57.497Z,97440.34
2023-03-19T16:42:39.271Z,97435.81
2023-03-19T16:45:22.772Z,97439.75
2023-03-19T16:47:51.405Z,97442.31
2023-03-19T16:50:21.988Z,97446.31
2023-03-19T16:52:50.118Z,97450.69
2023-03-19T16:55:20.815Z,97444.59
2023-03-19T16:57:56.032Z,97449.69
2023-03-19T17:00:24.751Z,97457.88
2023-03-19T17:02:53.481Z,97455.63
2023-03-19T17:05:22.962Z,97453.91
2023-03-19T17:07:51.432Z,97452.22
2023-03-19T17:10:21.036Z,97458.03
2023-03-19T17:12:50.198Z,97469.16
2023-03-19T17:15:22.929Z,97464.66
2023-03-19T17:17:50.972Z,97461.41
2023-03-19T17:20:19.486Z,97466.34
2023-03-19T17:22:51.813Z,97480.00
2023-03-19T17:25:20.261Z,97474.97
2023-03-19T17:27:50.311Z,97471.97
2023-03-19T17:30:18.811Z,97472.50
2023-03-19T17:32:48.161Z,97483.78
2023-03-19T17:35:17.089Z,97491.81
2023-03-19T17:37:45.486Z,97497.75
2023-03-19T17:40:19.351Z,97501.84
2023-03-19T17:42:47.766Z,97506.81
2023-03-19T17:45:16.375Z,97516.66
2023-03-19T17:47:44.620Z,97512.72
2023-03-19T17:50:19.299Z,97507.34
2023-03-19T17:52:47.944Z,97515.22
2023-03-19T17:55:19.167Z,97517.66
2023-03-19T17:57:51.450Z,97525.72
2023-03-19T18:00:19.954Z,97533.75
2023-03-19T18:02:48.087Z,97538.66
2023-03-19T18:05:17.428Z,97531.06
2023-03-19T18:07:46.042Z,97537.44
2023-03-19T18:10:19.590Z,97529.50
2023-03-19T18:12:47.658Z,97535.41
2023-03-19T18:15:15.894Z,97534.72
2023-03-19T18:17:46.312Z,97545.19
2023-03-19T18:20:15.297Z,97548.44
2023-03-19T18:22:43.391Z,97549.81
2023-03-19T18:25:17.669Z,97548.13
2023-03-19T18:27:49.545Z,97553.91
2023-03-19T18:30:19.075Z,97555.75
2023-03-19T18:32:48.734Z,97552.22
2023-03-19T18:35:17.187Z,97551.66
2023-03-19T18:37:46.255Z,97553.47
2023-03-19T18:40:15.929Z,97557.88
2023-03-19T18:42:44.185Z,97563.81
2023-03-19T18:45:14.637Z,97566.63
2023-03-19T18:47:42.801Z,97570.66
2023-03-19T18:50:17.002Z,97571.00
2023-03-19T18:52:53.142Z,97569.69
2023-03-19T18:55:27.085Z,97577.00
2023-03-19T18:57:57.137Z,97579.56
2023-03-19T19:00:29.620Z,97583.97
2023-03-19T19:02:58.332Z,97582.78
2023-03-19T19:05:31.870Z,97591.34
2023-03-19T19:08:00.649Z,97601.13
2023-03-19T19:10:32.895Z,97597.44
2023-03-19T19:13:04.388Z,97602.50
2023-03-19T19:15:34.658Z,97603.81
2023-03-19T19:18:04.193Z,97603.22
2023-03-19T19:20:35.690Z,97611.13
2023-03-19T19:23:04.155Z,97602.66
2023-03-19T19:25:32.289Z,97615.03
2023-03-19T19:28:03.269Z,97609.19
2023-03-19T19:30:31.391Z,97611.00
2023-03-19T19:33:00.995Z,97611.59
2023-03-19T19:35:33.576Z,97615.50
2023-03-19T19:38:01.640Z,97618.63
2023-03-19T19:40:31.051Z,97623.41
2023-03-19T19:43:03.525Z,97616.38
2023-03-19T19:45:33.488Z,97619.69
2023-03-19T19:48:03.096Z,97634.41
2023-03-19T19:50:31.264Z,97644.03
2023-03-19T19:52:59.428Z,97649.69
2023-03-19T19:55:27.713Z,97643.97
2023-03-19T19:57:56.023Z,97654.34
2023-03-19T20:00:28.787Z,97647.28
2023-03-19T20:02:57.388Z,97641.47
2023-03-19T20:05:28.002Z,97644.47
2023-03-19T20:07:56.710Z,97641.53
2023-03-19T20:10:25.936Z,97642.81
2023-03-19T20:12:56.243Z,97652.25
2023-03-19T20:15:26.355Z,97654.47
2023-03-19T20:17:56.285Z,97666.38
2023-03-19T20:20:27.089Z,97656.97
2023-03-19T20:22:55.243Z,97661.41
2023-03-19T20:25:24.153Z,97658.84
2023-03-19T20:27:53.463Z,97666.88
2023-03-19T20:30:28.819Z,97668.47
2023-03-19T20:32:57.012Z,97674.72
2023-03-19T20:35:29.370Z,97664.50
2023-03-19T20:37:58.667Z,97670.63
2023-03-19T20:40:29.016Z,97682.41
2023-03-19T20:42:59.702Z,97676.63
2023-03-19T20:45:35.727Z,97677.88
2023-03-19T20:48:05.511Z,97683.69
2023-03-19T20:50:35.106Z,97687.09
2023-03-19T20:53:04.024Z,97690.88
2023-03-19T20:55:32.955Z,97685.59
2023-03-19T20:58:04.300Z,97691.00
2023-03-19T21:00:33.391Z,97691.16
2023-03-19T21:03:02.452Z,97694.16
2023-03-19T21:05:34.920Z,97705.88
2023-03-19T21:08:05.155Z,97708.47
2023-03-19T21:10:35.794Z,97702.34
2023-03-19T21:13:04.199Z,97704.34
2023-03-19T21:15:33.592Z,97705.28
2023-03-19T21:18:03.696Z,97709.19
2023-03-19T21:20:33.179Z,97707.16
2023-03-19T21:23:07.579Z,97711.16
2023-03-19T21:25:36.277Z,97723.31
2023-03-19T21:28:06.146Z,97716.84
2023-03-19T21:30:35.426Z,97724.09
2023-03-19T21:33:03.648Z,97730.38
2023-03-19T21:35:32.051Z,97737.53
2023-03-19T21:38:20.765Z,97731.25
2023-03-19T21:40:49.641Z,97734.38
2023-03-19T21:43:22.240Z,97736.41
2023-03-19T21:45:54.735Z,97735.72
2023-03-19T21:48:24.942Z,97738.31
2023-03-19T21:50:53.574Z,97730.19
2023-03-19T21:53:24.547Z,97728.84
2023-03-19T21:55:53.990Z,97726.91
2023-03-19T21:58:24.737Z,97722.19
2023-03-19T22:00:53.166Z,97718.88
2023-03-19T22:03:21.925Z,97724.13
2023-03-19T22:05:51.302Z,97724.00
2023-03-19T22:08:20.425Z,97728.28
2023-03-19T22:10:53.896Z,97735.13
2023-03-19T22:13:22.873Z,97731.88
2023-03-19T22:15:52.219Z,97723.19
2023-03-19T22:18:20.474Z,97735.13
2023-03-19T22:20:48.724Z,97732.34
2023-03-19T22:23:16.949Z,97732.78
2023-03-19T22:25:45.632Z,97734.53
2023-03-19T22:28:18.362Z,97738.22
2023-03-19T22:30:46.537Z,97738.31
2023-03-19T22:33:16.658Z,97737.06
2023-03-19T22:35:44.842Z,97740.50
2023-03-19T22:38:13.062Z,97739.88
2023-03-19T22:40:41.602Z,97736.72
2023-03-19T22:43:18.627Z,97735.63
2023-03-19T22:45:47.869Z,97737.94
2023-03-19T22:48:18.086Z,97741.97
2023-03-19T22:50:46.138Z,97744.38
2023-03-19T22:53:21.553Z,97753.88
2023-03-19T22:55:51.788Z,97742.34
2023-03-19T22:58:21.348Z,97754.59
2023-03-19T23:00:49.808Z,97752.19
2023-03-19T23:03:21.447Z,97757.53
2023-03-19T23:05:51.154Z,97757.28
2023-03-19T23:08:22.117Z,97766.81
2023-03-19T23:10:50.219Z,97747.44
2023-03-19T23:13:18.325Z,97760.91
2023-03-19T23:15:56.643Z,97768.47
2023-03-19T23:18:27.581Z,97763.38
2023-03-19T23:20:55.568Z,97758.66
2023-03-19T23:23:23.876Z,97764.72
2023-03-19T23:25:52.339Z,97763.22
2023-03-19T23:28:21.525Z,97773.59
2023-03-19T23:30:51.656Z,97774.78
2023-03-19T23:33:20.843Z,97772.13
2023-03-19T23:35:50.589Z,97781.31
2023-03-19T23:38:18.727Z,97781.59
2023-03-19T23:40:46.809Z,97780.84
2023-03-19T23:43:18.472Z,97789.59
2023-03-19T23:45:46.960Z,97785.81
2023-03-19T23:48:17.281Z,97793.69
2023-03-19T23:50:46.781Z,97798.91
2023-03-19T23:53:19.863Z,97798.94
2023-03-19T23:55:48.594Z,97802.84
2023-03-19T23:58:17.796Z,97795.31
